createdAt,value
2016-02-15T00:00:49.066Z,0
2016-02-15T00:01:49.068Z,0
2016-02-15T00:02:49.071Z,0
2016-02-15T00:03:49.074Z,0
2016-02-15T00:04:49.060Z,0
2016-02-15T00:05:49.062Z,0
2016-02-15T00:06:49.082Z,0
2016-02-15T00:07:49.037Z,0
2016-02-15T00:08:49.056Z,0
2016-02-15T00:09:49.043Z,0
2016-02-15T00:10:48.920Z,0
2016-02-15T00:11:49.064Z,0
2016-02-15T00:12:49.035Z,0
2016-02-15T00:13:49.053Z,0
2016-02-15T00:14:49.056Z,0
2016-02-15T00:15:49.075Z,0
2016-02-15T00:16:49.046Z,0
2016-02-15T00:17:49.033Z,0
2016-02-15T00:18:49.051Z,0
2016-02-15T00:19:49.038Z,0
2016-02-15T00:20:49.042Z,0
2016-02-15T00:21:49.013Z,0
2016-02-15T00:22:49.046Z,0
2016-02-15T00:23:49.033Z,0
2016-02-15T00:24:49.021Z,0
2016-02-15T00:25:49.039Z,0
2016-02-15T00:26:49.026Z,0
2016-02-15T00:27:49.029Z,0
2016-02-15T00:28:49.032Z,0
2016-02-15T00:29:49.034Z,0
2016-02-15T00:30:49.021Z,0
2016-02-15T00:31:49.055Z,0
2016-02-15T00:32:49.010Z,0
2016-02-15T00:33:49.046Z,0
2016-02-15T00:34:49.016Z,0
2016-02-15T00:35:49.034Z,0
2016-02-15T00:36:49.022Z,0
2016-02-15T00:37:49.009Z,0
2016-02-15T00:38:48.870Z,0
2016-02-15T00:39:49.014Z,0
2016-02-15T00:40:49.017Z,0
2016-02-15T00:41:49.020Z,0
2016-02-15T00:42:49.022Z,0
2016-02-15T00:43:48.993Z,0
2016-02-15T00:44:49.012Z,0
2016-02-15T00:45:48.999Z,0
2016-02-15T00:46:49.017Z,0
2016-02-15T00:47:49.003Z,0
2016-02-15T00:48:49.023Z,0
2016-02-15T00:49:49.009Z,0
2016-02-15T00:50:49.012Z,0
2016-02-15T00:51:49.000Z,0
2016-02-15T00:52:49.002Z,0
2016-02-15T00:53:48.989Z,0
2016-02-15T00:54:49.023Z,0
2016-02-15T00:55:49.025Z,0
2016-02-15T00:56:48.982Z,0
2016-02-15T00:57:48.985Z,0
2016-02-15T00:58:48.988Z,0
2016-02-15T00:59:48.849Z,0
2016-02-15T01:00:48.976Z,0
2016-02-15T01:01:48.980Z,0
2016-02-15T01:02:48.998Z,0
2016-02-15T01:03:48.984Z,0
2016-02-15T01:04:49.003Z,0
2016-02-15T01:05:49.006Z,0
2016-02-15T01:06:48.977Z,0
2016-02-15T01:07:48.965Z,0
2016-02-15T01:08:48.982Z,0
2016-02-15T01:09:48.985Z,0
2016-02-15T01:10:48.988Z,0
2016-02-15T01:11:48.959Z,0
2016-02-15T01:12:48.960Z,0
2016-02-15T01:13:48.969Z,0
2016-02-15T01:14:48.928Z,0
2016-02-15T01:15:48.952Z,0
2016-02-15T01:16:48.911Z,0
2016-02-15T01:17:48.903Z,0
2016-02-15T01:18:48.918Z,0
2016-02-15T01:19:48.885Z,0
2016-02-15T01:20:48.914Z,0
2016-02-15T01:21:48.897Z,0
2016-02-15T01:22:48.881Z,0
2016-02-15T01:23:48.866Z,0
2016-02-15T01:24:48.884Z,0
2016-02-15T01:25:48.868Z,0
2016-02-15T01:26:48.869Z,0
2016-02-15T01:27:48.871Z,0
2016-02-15T01:28:48.842Z,0
2016-02-15T01:29:48.860Z,0
2016-02-15T01:30:48.863Z,0
2016-02-15T01:31:48.896Z,0
2016-02-15T01:32:48.852Z,0
2016-02-15T01:33:48.885Z,0
2016-02-15T01:34:48.856Z,0
2016-02-15T01:35:48.876Z,0
2016-02-15T01:36:48.846Z,0
2016-02-15T01:37:48.880Z,0
2016-02-15T01:38:48.837Z,0
2016-02-15T01:39:48.839Z,0
2016-02-15T01:40:48.857Z,0
2016-02-15T01:41:48.845Z,0
2016-02-15T01:42:48.831Z,0
2016-02-15T01:43:48.834Z,0
2016-02-15T01:44:48.837Z,0
2016-02-15T01:45:48.839Z,0
2016-02-15T01:46:48.842Z,0
2016-02-15T01:47:48.829Z,0
2016-02-15T01:48:48.831Z,0
2016-02-15T01:49:48.820Z,0
2016-02-15T01:50:48.853Z,0
2016-02-15T01:51:48.839Z,0
2016-02-15T01:52:48.827Z,0
2016-02-15T01:53:48.799Z,0
2016-02-15T01:54:48.832Z,0
2016-02-15T01:55:48.850Z,0
2016-02-15T01:56:48.869Z,0
2016-02-15T01:57:48.824Z,0
2016-02-15T01:58:48.813Z,0
2016-02-15T01:59:48.830Z,0
2016-02-15T02:00:48.817Z,0
2016-02-15T02:01:48.742Z,0
2016-02-15T02:02:48.807Z,0
2016-02-15T02:03:48.825Z,0
2016-02-15T02:04:49.016Z,0
2016-02-15T02:05:48.831Z,0
2016-02-15T02:06:48.802Z,0
2016-02-15T02:07:48.821Z,0
2016-02-15T02:08:48.792Z,0
2016-02-15T02:09:48.810Z,0
2016-02-15T02:10:48.798Z,0
2016-02-15T02:11:48.675Z,0
2016-02-15T02:12:48.818Z,0
2016-02-15T02:13:48.790Z,0
2016-02-15T02:14:48.823Z,0
2016-02-15T02:15:48.795Z,0
2016-02-15T02:16:48.798Z,0
2016-02-15T02:17:48.784Z,0
2016-02-15T02:18:48.819Z,0
2016-02-15T02:19:48.806Z,0
2016-02-15T02:20:48.792Z,0
2016-02-15T02:21:48.795Z,0
2016-02-15T02:22:48.783Z,0
2016-02-15T02:23:48.786Z,0
2016-02-15T02:24:48.788Z,0
2016-02-15T02:25:48.775Z,0
2016-02-15T02:26:48.824Z,0
2016-02-15T02:27:48.781Z,0
2016-02-15T02:28:48.768Z,0
2016-02-15T02:29:48.785Z,0
2016-02-15T02:30:48.617Z,0
2016-02-15T02:31:48.635Z,0
2016-02-15T02:32:48.763Z,0
2016-02-15T02:33:48.781Z,0
2016-02-15T02:34:48.768Z,0
2016-02-15T02:35:48.755Z,0
2016-02-15T02:36:48.774Z,0
2016-02-15T02:37:48.760Z,0
2016-02-15T02:38:48.779Z,0
2016-02-15T02:39:48.751Z,0
2016-02-15T02:40:48.768Z,0
2016-02-15T02:41:48.756Z,0
2016-02-15T02:42:48.759Z,0
2016-02-15T02:43:48.745Z,0
2016-02-15T02:44:48.795Z,0
2016-02-15T02:45:48.751Z,0
2016-02-15T02:46:48.769Z,0
2016-02-15T02:47:48.740Z,0
2016-02-15T02:48:48.790Z,0
2016-02-15T02:49:48.746Z,0
2016-02-15T02:50:48.764Z,0
2016-02-15T02:51:48.736Z,0
2016-02-15T02:52:48.769Z,0
2016-02-15T02:53:48.741Z,0
2016-02-15T02:54:48.744Z,0
2016-02-15T02:55:48.793Z,0
2016-02-15T02:56:48.733Z,0
2016-02-15T02:57:48.767Z,0
2016-02-15T02:58:48.724Z,0
2016-02-15T02:59:48.757Z,0
2016-02-15T03:00:48.729Z,0
2016-02-15T03:01:48.763Z,0
2016-02-15T03:02:48.718Z,0
2016-02-15T03:03:48.752Z,0
2016-02-15T03:04:48.707Z,0
2016-02-15T03:05:48.758Z,0
2016-02-15T03:06:48.729Z,0
2016-02-15T03:07:48.748Z,0
2016-02-15T03:08:48.719Z,0
2016-02-15T03:09:48.784Z,0
2016-02-15T03:10:48.709Z,0
2016-02-15T03:11:48.727Z,0
2016-02-15T03:12:48.698Z,0
2016-02-15T03:13:47.967Z,0
2016-02-15T03:14:48.703Z,0
2016-02-15T03:15:48.707Z,0
2016-02-15T03:16:48.709Z,0
2016-02-15T03:17:48.712Z,0
2016-02-15T03:18:48.761Z,0
2016-02-15T03:19:48.701Z,0
2016-02-15T03:20:48.736Z,0
2016-02-15T03:21:48.691Z,0
2016-02-15T03:22:48.709Z,0
2016-02-15T03:23:48.681Z,0
2016-02-15T03:24:48.715Z,0
2016-02-15T03:25:48.686Z,0
2016-02-15T03:26:48.705Z,0
2016-02-15T03:27:48.677Z,0
2016-02-15T03:28:48.523Z,0
2016-02-15T03:29:48.682Z,0
2016-02-15T03:30:48.668Z,0
2016-02-15T03:31:48.688Z,0
2016-02-15T03:32:48.674Z,0
2016-02-15T03:33:48.708Z,0
2016-02-15T03:34:48.679Z,0
2016-02-15T03:35:48.666Z,0
2016-02-15T03:36:48.685Z,0
2016-02-15T03:37:48.687Z,0
2016-02-15T03:38:48.674Z,0
2016-02-15T03:39:48.662Z,0
2016-02-15T03:40:48.665Z,0
2016-02-15T03:41:48.667Z,0
2016-02-15T03:42:48.685Z,0
2016-02-15T03:43:48.657Z,0
2016-02-15T03:44:48.659Z,0
2016-02-15T03:45:48.662Z,0
2016-02-15T03:46:48.665Z,0
2016-02-15T03:47:48.667Z,0
2016-02-15T03:48:48.670Z,0
2016-02-15T03:49:48.657Z,0
2016-02-15T03:50:48.645Z,0
2016-02-15T03:51:48.662Z,0
2016-02-15T03:52:48.634Z,0
2016-02-15T03:53:48.637Z,0
2016-02-15T03:54:48.640Z,0
2016-02-15T03:55:48.689Z,0
2016-02-15T03:56:48.675Z,0
2016-02-15T03:57:48.632Z,0
2016-02-15T03:58:48.635Z,0
2016-02-15T03:59:48.638Z,0
2016-02-15T04:00:48.640Z,0
2016-02-15T04:01:48.658Z,0
2016-02-15T04:02:48.630Z,0
2016-02-15T04:03:48.633Z,0
2016-02-15T04:04:48.635Z,0
2016-02-15T04:05:48.621Z,0
2016-02-15T04:06:48.625Z,0
2016-02-15T04:07:48.612Z,0
2016-02-15T04:08:48.615Z,0
2016-02-15T04:09:48.618Z,0
2016-02-15T04:10:48.620Z,0
2016-02-15T04:11:48.623Z,0
2016-02-15T04:12:48.610Z,0
2016-02-15T04:13:48.612Z,0
2016-02-15T04:14:48.615Z,0
2016-02-15T04:15:48.618Z,0
2016-02-15T04:16:48.620Z,0
2016-02-15T04:17:48.623Z,0
2016-02-15T04:18:48.610Z,0
2016-02-15T04:19:48.597Z,0
2016-02-15T04:20:48.600Z,0
2016-02-15T04:21:48.587Z,0
2016-02-15T04:22:48.574Z,0
2016-02-15T04:23:48.577Z,0
2016-02-15T04:24:48.580Z,0
2016-02-15T04:25:48.582Z,0
2016-02-15T04:26:48.586Z,0
2016-02-15T04:27:48.588Z,0
2016-02-15T04:28:48.574Z,0
2016-02-15T04:29:48.578Z,0
2016-02-15T04:30:48.596Z,0
2016-02-15T04:31:48.582Z,0
2016-02-15T04:32:48.570Z,0
2016-02-15T04:33:48.572Z,0
2016-02-15T04:34:48.591Z,0
2016-02-15T04:35:48.562Z,0
2016-02-15T04:36:48.580Z,0
2016-02-15T04:37:48.567Z,0
2016-02-15T04:38:48.555Z,0
2016-02-15T04:39:48.573Z,0
2016-02-15T04:40:48.559Z,0
2016-02-15T04:41:48.547Z,0
2016-02-15T04:42:48.565Z,0
2016-02-15T04:43:48.552Z,0
2016-02-15T04:44:48.555Z,0
2016-02-15T04:45:48.557Z,0
2016-02-15T04:46:48.545Z,0
2016-02-15T04:47:48.548Z,0
2016-02-15T04:48:48.565Z,0
2016-02-15T04:49:48.537Z,0
2016-02-15T04:50:48.540Z,0
2016-02-15T04:51:48.558Z,0
2016-02-15T04:52:48.562Z,0
2016-02-15T04:53:48.548Z,0
2016-02-15T04:54:48.550Z,0
2016-02-15T04:55:48.570Z,0
2016-02-15T04:56:48.525Z,0
2016-02-15T04:57:48.558Z,0
2016-02-15T04:58:48.530Z,0
2016-02-15T04:59:47.783Z,0
2016-02-15T05:00:48.519Z,0
2016-02-15T05:01:47.820Z,0
2016-02-15T05:02:48.510Z,0
2016-02-15T05:03:48.527Z,0
2016-02-15T05:04:48.516Z,0
2016-02-15T05:05:48.549Z,0
2016-02-15T05:06:48.379Z,0
2016-02-15T05:07:48.367Z,0
2016-02-15T05:08:48.526Z,0
2016-02-15T05:09:48.529Z,0
2016-02-15T05:10:48.516Z,0
2016-02-15T05:11:48.519Z,0
2016-02-15T05:12:48.505Z,0
2016-02-15T05:13:48.508Z,0
2016-02-15T05:14:48.510Z,0
2016-02-15T05:15:48.513Z,0
2016-02-15T05:16:48.516Z,0
2016-02-15T05:17:48.503Z,0
2016-02-15T05:18:48.506Z,0
2016-02-15T05:19:48.509Z,0
2016-02-15T05:20:48.542Z,0
2016-02-15T05:21:48.498Z,0
2016-02-15T05:22:48.517Z,0
2016-02-15T05:23:48.488Z,0
2016-02-15T05:24:48.506Z,0
2016-02-15T05:25:48.478Z,0
2016-02-15T05:26:48.496Z,0
2016-02-15T05:27:48.500Z,0
2016-02-15T05:28:48.517Z,0
2016-02-15T05:29:48.488Z,0
2016-02-15T05:30:48.476Z,0
2016-02-15T05:31:48.338Z,0
2016-02-15T05:32:48.481Z,0
2016-02-15T05:33:50.405Z,0
2016-02-15T05:34:48.486Z,0
2016-02-15T05:35:47.739Z,0
2016-02-15T05:36:48.492Z,0
2016-02-15T05:37:48.510Z,0
2016-02-15T05:38:48.512Z,0
2016-02-15T05:39:48.500Z,0
2016-02-15T05:40:48.549Z,0
2016-02-15T05:41:48.536Z,0
2016-02-15T05:42:48.507Z,0
2016-02-15T05:43:48.463Z,0
2016-02-15T05:44:48.466Z,0
2016-02-15T05:45:48.485Z,0
2016-02-15T05:46:48.471Z,0
2016-02-15T05:47:48.443Z,0
2016-02-15T05:48:48.696Z,0
2016-02-15T05:49:48.448Z,0
2016-02-15T05:50:48.482Z,0
2016-02-15T05:51:48.439Z,0
2016-02-15T05:52:48.457Z,0
2016-02-15T05:53:48.303Z,0
2016-02-15T05:54:48.462Z,0
2016-02-15T05:55:48.481Z,0
2016-02-15T05:56:48.498Z,0
2016-02-15T05:57:48.298Z,0
2016-02-15T05:58:48.473Z,0
2016-02-15T05:59:48.428Z,0
2016-02-15T06:00:48.744Z,0
2016-02-15T06:01:48.449Z,0
2016-02-15T06:02:48.437Z,0
2016-02-15T06:03:48.439Z,0
2016-02-15T06:04:48.411Z,0
2016-02-15T06:05:48.429Z,0
2016-02-15T06:06:48.432Z,0
2016-02-15T06:07:48.435Z,0
2016-02-15T06:08:48.452Z,0
2016-02-15T06:09:48.408Z,0
2016-02-15T06:10:48.443Z,0
2016-02-15T06:11:48.414Z,0
2016-02-15T06:12:48.416Z,0
2016-02-15T06:13:48.419Z,0
2016-02-15T06:14:48.421Z,0
2016-02-15T06:15:48.425Z,0
2016-02-15T06:16:48.412Z,0
2016-02-15T06:17:48.429Z,0
2016-02-15T06:18:48.402Z,0
2016-02-15T06:19:48.389Z,0
2016-02-15T06:20:48.392Z,0
2016-02-15T06:21:48.394Z,0
2016-02-15T06:22:48.412Z,5
2016-02-15T06:23:48.400Z,5
2016-02-15T06:24:48.418Z,5
2016-02-15T06:25:48.405Z,5
2016-02-15T06:26:48.391Z,5
2016-02-15T06:27:48.395Z,5
2016-02-15T06:28:48.381Z,5
2016-02-15T06:29:48.384Z,5
2016-02-15T06:30:48.387Z,5
2016-02-15T06:31:48.374Z,5
2016-02-15T06:32:48.377Z,10
2016-02-15T06:33:48.364Z,10
2016-02-15T06:34:48.382Z,10
2016-02-15T06:35:48.369Z,10
2016-02-15T06:36:48.388Z,10
2016-02-15T06:37:48.374Z,10
2016-02-15T06:38:48.378Z,10
2016-02-15T06:39:48.364Z,10
2016-02-15T06:40:48.366Z,10
2016-02-15T06:41:48.370Z,10
2016-02-15T06:42:48.357Z,10
2016-02-15T06:43:48.359Z,10
2016-02-15T06:44:48.346Z,10
2016-02-15T06:45:48.349Z,10
2016-02-15T06:46:48.336Z,10
2016-02-15T06:47:48.386Z,10
2016-02-15T06:48:48.326Z,10
2016-02-15T06:49:48.344Z,10
2016-02-15T06:50:48.348Z,10
2016-02-15T06:51:48.350Z,15
2016-02-15T06:52:48.352Z,15
2016-02-15T06:53:48.324Z,15
2016-02-15T06:54:48.358Z,15
2016-02-15T06:55:48.361Z,15
2016-02-15T06:56:48.348Z,15
2016-02-15T06:57:48.319Z,15
2016-02-15T06:58:48.337Z,15
2016-02-15T06:59:48.325Z,15
2016-02-15T07:00:48.342Z,20
2016-02-15T07:01:48.330Z,25
2016-02-15T07:02:48.317Z,25
2016-02-15T07:03:48.366Z,30
2016-02-15T07:04:48.494Z,30
2016-02-15T07:05:48.341Z,30
2016-02-15T07:06:48.311Z,35
2016-02-15T07:07:48.330Z,35
2016-02-15T07:08:48.302Z,35
2016-02-15T07:09:48.319Z,35
2016-02-15T07:10:48.307Z,35
2016-02-15T07:11:48.325Z,40
2016-02-15T07:12:48.312Z,40
2016-02-15T07:13:48.331Z,40
2016-02-15T07:14:48.287Z,45
2016-02-15T07:15:48.320Z,45
2016-02-15T07:16:48.293Z,45
2016-02-15T07:17:48.295Z,50
2016-02-15T07:18:48.298Z,50
2016-02-15T07:19:48.300Z,50
2016-02-15T07:20:48.303Z,50
2016-02-15T07:21:48.306Z,55
2016-02-15T07:22:48.277Z,55
2016-02-15T07:23:48.296Z,60
2016-02-15T07:24:48.406Z,60
2016-02-15T07:25:48.285Z,60
2016-02-15T07:26:48.256Z,60
2016-02-15T07:27:48.274Z,55
2016-02-15T07:28:48.542Z,55
2016-02-15T07:29:49.155Z,55
2016-02-15T07:30:48.251Z,65
2016-02-15T07:31:48.301Z,70
2016-02-15T07:32:48.272Z,75
2016-02-15T07:33:48.259Z,75
2016-02-15T07:34:48.278Z,75
2016-02-15T07:35:48.264Z,70
2016-02-15T07:36:48.267Z,75
2016-02-15T07:37:48.255Z,80
2016-02-15T07:38:48.257Z,85
2016-02-15T07:39:48.261Z,85
2016-02-15T07:40:48.263Z,85
2016-02-15T07:41:48.281Z,85
2016-02-15T07:42:48.455Z,85
2016-02-15T07:43:48.271Z,85
2016-02-15T07:44:48.243Z,85
2016-02-15T07:45:48.276Z,85
2016-02-15T07:46:48.263Z,85
2016-02-15T07:47:48.281Z,90
2016-02-15T07:48:48.222Z,85
2016-02-15T07:49:48.240Z,85
2016-02-15T07:50:48.274Z,85
2016-02-15T07:51:48.229Z,80
2016-02-15T07:52:48.232Z,80
2016-02-15T07:53:48.251Z,80
2016-02-15T07:54:48.222Z,80
2016-02-15T07:55:48.240Z,80
2016-02-15T07:56:48.243Z,80
2016-02-15T07:57:48.215Z,80
2016-02-15T07:58:48.248Z,80
2016-02-15T07:59:48.204Z,85
2016-02-15T08:00:48.223Z,85
2016-02-15T08:01:48.225Z,85
2016-02-15T08:02:48.212Z,85
2016-02-15T08:03:48.215Z,80
2016-02-15T08:04:48.203Z,80
2016-02-15T08:05:48.220Z,80
2016-02-15T08:06:48.208Z,75
2016-02-15T08:07:49.929Z,85
2016-02-15T08:08:48.197Z,90
2016-02-15T08:09:48.231Z,90
2016-02-15T08:10:48.202Z,90
2016-02-15T08:11:48.236Z,95
2016-02-15T08:12:48.193Z,95
2016-02-15T08:13:48.211Z,90
2016-02-15T08:14:48.199Z,90
2016-02-15T08:15:48.216Z,90
2016-02-15T08:16:48.187Z,90
2016-02-15T08:17:48.035Z,90
2016-02-15T08:18:48.177Z,95
2016-02-15T08:19:48.212Z,90
2016-02-15T08:20:48.198Z,90
2016-02-15T08:21:48.248Z,95
2016-02-15T08:22:48.188Z,100
2016-02-15T08:23:48.191Z,105
2016-02-15T08:25:02.287Z,105
2016-02-15T08:25:48.195Z,95
2016-02-15T08:26:48.199Z,80
2016-02-15T08:27:48.201Z,65
2016-02-15T08:28:48.188Z,60
2016-02-15T08:29:48.192Z,65
2016-02-15T08:30:48.178Z,75
2016-02-15T08:31:48.181Z,90
2016-02-15T08:32:48.183Z,105
2016-02-15T08:33:48.186Z,130
2016-02-15T08:34:48.189Z,145
2016-02-15T08:35:48.192Z,145
2016-02-15T08:36:48.179Z,145
2016-02-15T08:37:48.166Z,140
2016-02-15T08:38:48.183Z,135
2016-02-15T08:39:48.171Z,130
2016-02-15T08:40:48.159Z,125
2016-02-15T08:41:48.161Z,130
2016-02-15T08:42:48.179Z,125
2016-02-15T08:43:48.167Z,125
2016-02-15T08:44:48.185Z,130
2016-02-15T08:45:48.828Z,130
2016-02-15T08:46:48.221Z,120
2016-02-15T08:47:48.271Z,115
2016-02-15T08:48:49.085Z,100
2016-02-15T08:49:48.183Z,100
2016-02-15T08:50:48.216Z,120
2016-02-15T08:51:48.703Z,120
2016-02-15T08:52:48.269Z,115
2016-02-15T08:53:48.193Z,120
2016-02-15T08:54:49.226Z,135
2016-02-15T08:55:49.074Z,145
2016-02-15T08:56:49.295Z,160
2016-02-15T08:57:48.939Z,170
2016-02-15T08:58:48.645Z,170
2016-02-15T08:59:48.850Z,175
2016-02-15T09:00:48.681Z,175
2016-02-15T09:01:48.778Z,170
2016-02-15T09:02:49.108Z,160
2016-02-15T09:03:48.251Z,155
2016-02-15T09:04:48.707Z,165
2016-02-15T09:05:48.711Z,165
2016-02-15T09:06:50.431Z,165
2016-02-15T09:07:48.747Z,155
2016-02-15T09:08:48.780Z,150
2016-02-15T09:09:50.221Z,145
2016-02-15T09:10:48.161Z,160
2016-02-15T09:11:48.304Z,175
2016-02-15T09:12:48.635Z,180
2016-02-15T09:13:48.153Z,180
2016-02-15T09:14:48.379Z,175
2016-02-15T09:15:48.131Z,175
2016-02-15T09:16:48.150Z,175
2016-02-15T09:17:48.137Z,180
2016-02-15T09:18:48.139Z,175
2016-02-15T09:19:48.126Z,170
2016-02-15T09:20:48.129Z,175
2016-02-15T09:21:48.147Z,175
2016-02-15T09:22:48.150Z,175
2016-02-15T09:23:48.153Z,175
2016-02-15T09:24:48.749Z,170
2016-02-15T09:25:48.455Z,165
2016-02-15T09:26:48.864Z,165
2016-02-15T09:27:48.679Z,155
2016-02-15T09:28:48.916Z,150
2016-02-15T09:29:48.560Z,150
2016-02-15T09:30:48.655Z,150
2016-02-15T09:31:48.596Z,155
2016-02-15T09:32:48.818Z,160
2016-02-15T09:33:48.882Z,150
2016-02-15T09:34:48.510Z,135
2016-02-15T09:35:48.716Z,125
2016-02-15T09:36:49.032Z,130
2016-02-15T09:37:48.471Z,145
2016-02-15T09:38:48.677Z,155
2016-02-15T09:39:48.633Z,170
2016-02-15T09:40:48.479Z,190
2016-02-15T09:41:48.717Z,200
2016-02-15T09:42:48.907Z,200
2016-02-15T09:43:48.815Z,185
2016-02-15T09:44:48.601Z,175
2016-02-15T09:45:48.618Z,175
2016-02-15T09:46:48.886Z,180
2016-02-15T09:47:48.718Z,185
2016-02-15T09:48:48.704Z,195
2016-02-15T09:49:48.628Z,210
2016-02-15T09:50:48.570Z,215
2016-02-15T09:51:48.619Z,215
2016-02-15T09:52:48.309Z,210
2016-02-15T09:53:48.109Z,220
2016-02-15T09:54:48.095Z,230
2016-02-15T09:55:48.317Z,235
2016-02-15T09:56:48.116Z,240
2016-02-15T09:57:48.103Z,240
2016-02-15T09:58:48.122Z,230
2016-02-15T09:59:48.108Z,235
2016-02-15T10:00:48.128Z,230
2016-02-15T10:01:48.114Z,220
2016-02-15T10:02:48.102Z,195
2016-02-15T10:03:48.104Z,185
2016-02-15T10:04:48.091Z,200
2016-02-15T10:05:48.110Z,215
2016-02-15T10:06:48.096Z,220
2016-02-15T10:07:48.115Z,210
2016-02-15T10:08:48.087Z,210
2016-02-15T10:09:48.105Z,215
2016-02-15T10:10:48.092Z,230
2016-02-15T10:11:48.110Z,245
2016-02-15T10:12:48.097Z,250
2016-02-15T10:13:48.115Z,250
2016-02-15T10:14:48.102Z,260
2016-02-15T10:15:48.106Z,260
2016-02-15T10:16:48.092Z,260
2016-02-15T10:17:48.095Z,260
2016-02-15T10:18:48.002Z,260
2016-02-15T10:19:48.085Z,260
2016-02-15T10:20:48.091Z,260
2016-02-15T10:21:48.049Z,265
2016-02-15T10:22:48.054Z,270
2016-02-15T10:23:48.029Z,260
2016-02-15T10:24:48.027Z,265
2016-02-15T10:25:48.042Z,260
2016-02-15T10:26:48.009Z,255
2016-02-15T10:27:48.037Z,255
2016-02-15T10:28:48.005Z,255
2016-02-15T10:29:48.006Z,255
2016-02-15T10:30:48.021Z,250
2016-02-15T10:31:48.007Z,240
2016-02-15T10:32:48.008Z,215
2016-02-15T10:33:48.040Z,185
2016-02-15T10:34:48.089Z,150
2016-02-15T10:35:48.044Z,135
2016-02-15T10:36:48.047Z,130
2016-02-15T10:37:48.033Z,135
2016-02-15T10:38:48.035Z,135
2016-02-15T10:39:48.023Z,140
2016-02-15T10:40:48.009Z,140
2016-02-15T10:41:48.012Z,135
2016-02-15T10:42:47.998Z,115
2016-02-15T10:43:48.000Z,100
2016-02-15T10:44:48.003Z,100
2016-02-15T10:45:48.021Z,115
2016-02-15T10:46:48.008Z,130
2016-02-15T10:47:47.996Z,145
2016-02-15T10:48:47.998Z,170
2016-02-15T10:49:48.002Z,185
2016-02-15T10:50:48.035Z,195
2016-02-15T10:51:48.006Z,215
2016-02-15T10:52:47.994Z,235
2016-02-15T10:53:47.996Z,255
2016-02-15T10:54:47.983Z,260
2016-02-15T10:55:48.049Z,255
2016-02-15T10:56:48.051Z,240
2016-02-15T10:57:47.976Z,215
2016-02-15T10:58:48.026Z,205
2016-02-15T10:59:48.043Z,205
2016-02-15T11:00:48.000Z,220
2016-02-15T11:01:48.095Z,225
2016-02-15T11:02:48.005Z,230
2016-02-15T11:03:48.039Z,245
2016-02-15T11:04:47.994Z,275
2016-02-15T11:05:48.014Z,280
2016-02-15T11:06:48.016Z,275
2016-02-15T11:07:48.002Z,255
2016-02-15T11:08:48.006Z,255
2016-02-15T11:09:47.977Z,255
2016-02-15T11:10:48.026Z,255
2016-02-15T11:11:47.983Z,255
2016-02-15T11:12:48.016Z,250
2016-02-15T11:13:48.003Z,250
2016-02-15T11:14:48.022Z,260
2016-02-15T11:15:47.977Z,275
2016-02-15T11:16:47.980Z,290
2016-02-15T11:17:47.998Z,295
2016-02-15T11:18:47.985Z,310
2016-02-15T11:19:47.988Z,320
2016-02-15T11:20:48.021Z,340
2016-02-15T11:21:47.994Z,345
2016-02-15T11:22:48.012Z,345
2016-02-15T11:23:47.982Z,330
2016-02-15T11:24:48.033Z,305
2016-02-15T11:25:48.020Z,295
2016-02-15T11:26:48.225Z,300
2016-02-15T11:27:47.994Z,310
2016-02-15T11:28:47.996Z,325
2016-02-15T11:29:47.984Z,345
2016-02-15T11:30:47.987Z,370
2016-02-15T11:32:02.208Z,390
2016-02-15T11:33:03.226Z,375
2016-02-15T11:33:48.369Z,365
2016-02-15T11:34:49.934Z,355
2016-02-15T11:35:48.015Z,355
2016-02-15T11:36:47.986Z,340
2016-02-15T11:37:48.006Z,325
2016-02-15T11:38:47.992Z,305
2016-02-15T11:39:48.010Z,290
2016-02-15T11:40:48.028Z,300
2016-02-15T11:41:48.031Z,370
2016-02-15T11:42:48.003Z,430
2016-02-15T11:43:47.990Z,370
2016-02-15T11:44:48.055Z,285
2016-02-15T11:45:48.011Z,235
2016-02-15T11:46:47.999Z,240
2016-02-15T11:47:48.032Z,235
2016-02-15T11:48:48.019Z,220
2016-02-15T11:49:48.007Z,210
2016-02-15T11:50:48.009Z,205
2016-02-15T11:51:48.012Z,205
2016-02-15T11:52:47.999Z,210
2016-02-15T11:53:48.017Z,230
2016-02-15T11:54:48.051Z,250
2016-02-15T11:55:48.023Z,260
2016-02-15T11:56:48.009Z,245
2016-02-15T11:57:48.028Z,225
2016-02-15T11:58:48.015Z,205
2016-02-15T11:59:48.033Z,200
2016-02-15T12:00:48.020Z,190
2016-02-15T12:01:48.039Z,175
2016-02-15T12:02:48.026Z,175
2016-02-15T12:03:48.044Z,170
2016-02-15T12:04:48.000Z,160
2016-02-15T12:05:48.018Z,160
2016-02-15T12:06:48.020Z,160
2016-02-15T12:07:48.008Z,165
2016-02-15T12:08:48.026Z,165
2016-02-15T12:09:48.013Z,165
2016-02-15T12:10:48.016Z,165
2016-02-15T12:11:48.050Z,165
2016-02-15T12:12:48.021Z,165
2016-02-15T12:13:48.008Z,160
2016-02-15T12:14:48.042Z,160
2016-02-15T12:15:48.030Z,160
2016-02-15T12:16:48.219Z,160
2016-02-15T12:17:48.003Z,160
2016-02-15T12:18:48.053Z,160
2016-02-15T12:19:48.025Z,160
2016-02-15T12:20:48.058Z,160
2016-02-15T12:21:48.046Z,160
2016-02-15T12:22:48.033Z,165
2016-02-15T12:23:48.051Z,165
2016-02-15T12:24:48.054Z,165
2016-02-15T12:25:48.025Z,165
2016-02-15T12:26:47.887Z,170
2016-02-15T12:27:48.015Z,165
2016-02-15T12:28:48.032Z,165
2016-02-15T12:29:48.035Z,170
2016-02-15T12:30:48.023Z,180
2016-02-15T12:31:48.040Z,205
2016-02-15T12:32:48.028Z,235
2016-02-15T12:33:48.062Z,250
2016-02-15T12:34:48.033Z,260
2016-02-15T12:35:48.036Z,265
2016-02-15T12:36:48.679Z,305
2016-02-15T12:37:47.964Z,335
2016-02-15T12:38:48.872Z,345
2016-02-15T12:39:48.766Z,330
2016-02-15T12:40:48.565Z,315
2016-02-15T12:41:48.630Z,260
2016-02-15T12:42:48.400Z,220
2016-02-15T12:43:48.402Z,200
2016-02-15T12:44:48.592Z,175
2016-02-15T12:45:48.110Z,180
2016-02-15T12:46:48.394Z,205
2016-02-15T12:47:48.037Z,200
2016-02-15T12:48:48.055Z,205
2016-02-15T12:49:48.074Z,230
2016-02-15T12:50:48.061Z,235
2016-02-15T12:51:48.032Z,230
2016-02-15T12:52:48.051Z,210
2016-02-15T12:53:48.022Z,195
2016-02-15T12:54:48.071Z,170
2016-02-15T12:55:48.121Z,155
2016-02-15T12:56:48.546Z,140
2016-02-15T12:57:48.705Z,135
2016-02-15T12:58:48.317Z,140
2016-02-15T12:59:48.615Z,155
2016-02-15T13:00:48.573Z,175
2016-02-15T13:01:48.606Z,195
2016-02-15T13:02:48.561Z,200
2016-02-15T13:03:51.674Z,195
2016-02-15T13:04:48.411Z,190
2016-02-15T13:05:48.601Z,190
2016-02-15T13:06:48.589Z,195
2016-02-15T13:07:49.262Z,185
2016-02-15T13:08:48.765Z,190
2016-02-15T13:09:47.690Z,200
2016-02-15T13:10:48.645Z,200
2016-02-15T13:11:48.789Z,185
2016-02-15T13:12:48.589Z,175
2016-02-15T13:13:49.326Z,165
2016-02-15T13:14:48.563Z,155
2016-02-15T13:15:48.080Z,155
2016-02-15T13:16:48.334Z,145
2016-02-15T13:17:48.368Z,140
2016-02-15T13:18:48.495Z,140
2016-02-15T13:19:48.561Z,140
2016-02-15T13:20:48.563Z,145
2016-02-15T13:21:48.379Z,145
2016-02-15T13:22:48.491Z,150
2016-02-15T13:23:48.602Z,165
2016-02-15T13:24:48.590Z,180
2016-02-15T13:25:48.624Z,215
2016-02-15T13:26:48.485Z,255
2016-02-15T13:27:48.441Z,280
2016-02-15T13:28:48.648Z,245
2016-02-15T13:29:48.635Z,200
2016-02-15T13:30:48.543Z,155
2016-02-15T13:31:48.624Z,155
2016-02-15T13:32:47.829Z,155
2016-02-15T13:33:48.582Z,145
2016-02-15T13:34:48.522Z,135
2016-02-15T13:35:48.509Z,125
2016-02-15T13:36:48.795Z,125
2016-02-15T13:37:48.703Z,125
2016-02-15T13:38:48.533Z,125
2016-02-15T13:39:48.412Z,130
2016-02-15T13:40:48.586Z,130
2016-02-15T13:41:48.557Z,130
2016-02-15T13:42:48.654Z,135
2016-02-15T13:43:48.531Z,145
2016-02-15T13:44:48.441Z,145
2016-02-15T13:45:48.787Z,145
2016-02-15T13:46:48.508Z,150
2016-02-15T13:47:48.542Z,150
2016-02-15T13:48:48.747Z,155
2016-02-15T13:49:48.313Z,155
2016-02-15T13:50:48.566Z,155
2016-02-15T13:51:48.537Z,160
2016-02-15T13:52:48.588Z,160
2016-02-15T13:53:48.605Z,165
2016-02-15T13:54:48.217Z,170
2016-02-15T13:55:48.580Z,175
2016-02-15T13:56:48.519Z,175
2016-02-15T13:57:48.475Z,180
2016-02-15T13:58:48.635Z,190
2016-02-15T13:59:48.715Z,195
2016-02-15T14:00:48.671Z,200
2016-02-15T14:01:48.705Z,195
2016-02-15T14:02:48.645Z,190
2016-02-15T14:03:48.507Z,180
2016-02-15T14:04:48.744Z,185
2016-02-15T14:05:48.590Z,200
2016-02-15T14:06:48.343Z,210
2016-02-15T14:07:48.331Z,235
2016-02-15T14:08:48.676Z,260
2016-02-15T14:09:48.742Z,270
2016-02-15T14:10:48.636Z,270
2016-02-15T14:11:48.372Z,265
2016-02-15T14:12:48.625Z,255
2016-02-15T14:13:49.315Z,250
2016-02-15T14:14:49.896Z,255
2016-02-15T14:15:49.650Z,250
2016-02-15T14:16:48.573Z,250
2016-02-15T14:17:48.591Z,240